CFG8EC EDDF-LEBL
Flight info
| Callsign | CFG8EC |
|---|---|
| Flight time | N/A |
| Altitude | 35000 |
| Route | ANEKI2L/18 ANEKI Y163 HERBI Y164 MOPAN DCT LUTIX DCT BENOT DCT NEMOS DCT GEVEA DCT INCUS DCT BALSI DCT RETNO DCT TUPOX DCT MTG DCT DIVKO DCT NILDU N975 BISBA |
| Aircraft | A320/M-SDE3FGHIRWY/LB1 |
Departure
| Time | N/A |
|---|---|
| Airport | Frankfurt Main Airport (EDDF) |
Arrival
| Time | 2026-05-03 20:38 |
|---|---|
| Airport | Josep Tarradellas Barcelona-El Prat Airport (LEBL) |
| Time | Latitude | Longitude | Altitude | Speed | Heading |
|---|---|---|---|---|---|
| 2026-05-03 20:15 | 41.88092 | 3.03980 | 20645 ft | 315 kts | 242° |
| 2026-05-03 20:15 | 41.87099 | 3.01373 | 20398 ft | 313 kts | 242° |
| 2026-05-03 20:15 | 41.86124 | 2.98817 | 20157 ft | 311 kts | 242° |
| 2026-05-03 20:15 | 41.85140 | 2.96239 | 19914 ft | 310 kts | 242° |
| 2026-05-03 20:16 | 41.84157 | 2.93671 | 19663 ft | 309 kts | 242° |
| 2026-05-03 20:16 | 41.83176 | 2.91112 | 19433 ft | 308 kts | 242° |
| 2026-05-03 20:16 | 41.82198 | 2.88559 | 19205 ft | 307 kts | 242° |
| 2026-05-03 20:16 | 41.81221 | 2.86015 | 18967 ft | 306 kts | 242° |
| 2026-05-03 20:17 | 41.80247 | 2.83480 | 18729 ft | 306 kts | 242° |
| 2026-05-03 20:17 | 41.79273 | 2.80956 | 18520 ft | 305 kts | 242° |
| 2026-05-03 20:17 | 41.78298 | 2.78436 | 18282 ft | 304 kts | 242° |
| 2026-05-03 20:17 | 41.77326 | 2.75924 | 18007 ft | 303 kts | 242° |
| 2026-05-03 20:18 | 41.76361 | 2.73424 | 17747 ft | 302 kts | 242° |
| 2026-05-03 20:18 | 41.75397 | 2.70933 | 17480 ft | 300 kts | 242° |
| 2026-05-03 20:18 | 41.74437 | 2.68458 | 17214 ft | 299 kts | 242° |
| 2026-05-03 20:18 | 41.73482 | 2.65991 | 16968 ft | 297 kts | 242° |
| 2026-05-03 20:19 | 41.72534 | 2.63545 | 16642 ft | 294 kts | 242° |
| 2026-05-03 20:19 | 41.71596 | 2.61120 | 16288 ft | 293 kts | 242° |
| 2026-05-03 20:19 | 41.70662 | 2.58706 | 15938 ft | 291 kts | 242° |
| 2026-05-03 20:19 | 41.69733 | 2.56310 | 15594 ft | 290 kts | 242° |
| 2026-05-03 20:20 | 41.68806 | 2.53922 | 15256 ft | 288 kts | 242° |
| 2026-05-03 20:20 | 41.67886 | 2.51550 | 14926 ft | 287 kts | 242° |
| 2026-05-03 20:20 | 41.66967 | 2.49186 | 14598 ft | 285 kts | 242° |
| 2026-05-03 20:20 | 41.66052 | 2.46837 | 14286 ft | 284 kts | 242° |
| 2026-05-03 20:21 | 41.65142 | 2.44504 | 13963 ft | 283 kts | 242° |
| 2026-05-03 20:21 | 41.64235 | 2.42180 | 13630 ft | 281 kts | 242° |
| 2026-05-03 20:21 | 41.63333 | 2.39868 | 13261 ft | 280 kts | 242° |
| 2026-05-03 20:21 | 41.62430 | 2.37562 | 12876 ft | 279 kts | 242° |
| 2026-05-03 20:22 | 41.61532 | 2.35265 | 12505 ft | 279 kts | 242° |
| 2026-05-03 20:22 | 41.60649 | 2.33003 | 12139 ft | 278 kts | 242° |
| 2026-05-03 20:22 | 41.59754 | 2.30718 | 11772 ft | 277 kts | 242° |
| 2026-05-03 20:22 | 41.58855 | 2.28436 | 11411 ft | 276 kts | 242° |
| 2026-05-03 20:23 | 41.57958 | 2.26162 | 11036 ft | 276 kts | 242° |
| 2026-05-03 20:23 | 41.57066 | 2.23895 | 10661 ft | 276 kts | 242° |
| 2026-05-03 20:23 | 41.56176 | 2.21623 | 10294 ft | 276 kts | 242° |
| 2026-05-03 20:23 | 41.55287 | 2.19359 | 9926 ft | 275 kts | 242° |
| 2026-05-03 20:24 | 41.54397 | 2.17098 | 9531 ft | 274 kts | 242° |
| 2026-05-03 20:24 | 41.53512 | 2.14846 | 9139 ft | 273 kts | 242° |
| 2026-05-03 20:24 | 41.52633 | 2.12615 | 8786 ft | 271 kts | 242° |
| 2026-05-03 20:24 | 41.51753 | 2.10407 | 8414 ft | 269 kts | 240° |
| 2026-05-03 20:25 | 41.50813 | 2.08257 | 8021 ft | 268 kts | 238° |
| 2026-05-03 20:25 | 41.49855 | 2.06174 | 7645 ft | 266 kts | 238° |
| 2026-05-03 20:25 | 41.48878 | 2.04082 | 7256 ft | 266 kts | 237° |
| 2026-05-03 20:25 | 41.47902 | 2.01993 | 6877 ft | 264 kts | 237° |
| 2026-05-03 20:26 | 41.46935 | 1.99913 | 6499 ft | 263 kts | 238° |
| 2026-05-03 20:26 | 41.45975 | 1.97837 | 6114 ft | 262 kts | 238° |
| 2026-05-03 20:26 | 41.45024 | 1.95773 | 5711 ft | 261 kts | 237° |
| 2026-05-03 20:26 | 41.44073 | 1.93709 | 5288 ft | 261 kts | 237° |
| 2026-05-03 20:27 | 41.43126 | 1.91652 | 5044 ft | 260 kts | 237° |
| 2026-05-03 20:27 | 41.42174 | 1.89581 | 5029 ft | 263 kts | 237° |
| 2026-05-03 20:27 | 41.41217 | 1.87499 | 5027 ft | 264 kts | 237° |
| 2026-05-03 20:27 | 41.40257 | 1.85415 | 5014 ft | 264 kts | 237° |
| 2026-05-03 20:28 | 41.39296 | 1.83332 | 5014 ft | 264 kts | 237° |
| 2026-05-03 20:28 | 41.38335 | 1.81254 | 5015 ft | 264 kts | 237° |
| 2026-05-03 20:28 | 41.37372 | 1.79173 | 5015 ft | 264 kts | 237° |
| 2026-05-03 20:28 | 41.36429 | 1.77134 | 5005 ft | 250 kts | 237° |
| 2026-05-03 20:29 | 41.35549 | 1.75233 | 5011 ft | 234 kts | 236° |
| 2026-05-03 20:29 | 41.34435 | 1.73708 | 5015 ft | 230 kts | 210° |
| 2026-05-03 20:29 | 41.32929 | 1.73071 | 4971 ft | 230 kts | 182° |
| 2026-05-03 20:29 | 41.31370 | 1.73478 | 4848 ft | 231 kts | 157° |
| 2026-05-03 20:30 | 41.29902 | 1.74364 | 4708 ft | 231 kts | 156° |
| 2026-05-03 20:30 | 41.28413 | 1.75134 | 4360 ft | 229 kts | 172° |
| 2026-05-03 20:30 | 41.26863 | 1.74973 | 4029 ft | 223 kts | 202° |
| 2026-05-03 20:30 | 41.25614 | 1.73786 | 3937 ft | 224 kts | 232° |
| 2026-05-03 20:31 | 41.24860 | 1.71950 | 3996 ft | 229 kts | 243° |
| 2026-05-03 20:31 | 41.23979 | 1.70230 | 3900 ft | 223 kts | 220° |
| 2026-05-03 20:31 | 41.22651 | 1.69239 | 3774 ft | 220 kts | 194° |
| 2026-05-03 20:31 | 41.21155 | 1.69157 | 3664 ft | 220 kts | 168° |
| 2026-05-03 20:32 | 41.19737 | 1.69957 | 3567 ft | 221 kts | 143° |
| 2026-05-03 20:32 | 41.18720 | 1.71467 | 3470 ft | 222 kts | 118° |
| 2026-05-03 20:32 | 41.18285 | 1.73403 | 3369 ft | 224 kts | 94° |
| 2026-05-03 20:32 | 41.18532 | 1.75441 | 3271 ft | 226 kts | 69° |
| 2026-05-03 20:33 | 41.19184 | 1.77347 | 3168 ft | 227 kts | 66° |
| 2026-05-03 20:33 | 41.19849 | 1.79244 | 3068 ft | 226 kts | 66° |
| 2026-05-03 20:33 | 41.20504 | 1.81128 | 3003 ft | 224 kts | 67° |
| 2026-05-03 20:33 | 41.21155 | 1.83011 | 3006 ft | 225 kts | 66° |
| 2026-05-03 20:34 | 41.21793 | 1.84854 | 2999 ft | 212 kts | 66° |
| 2026-05-03 20:34 | 41.22396 | 1.86599 | 2998 ft | 205 kts | 67° |
| 2026-05-03 20:34 | 41.22985 | 1.88305 | 2993 ft | 202 kts | 67° |
| 2026-05-03 20:34 | 41.23567 | 1.89992 | 2832 ft | 198 kts | 67° |
| 2026-05-03 20:35 | 41.24121 | 1.91590 | 2688 ft | 181 kts | 66° |
| 2026-05-03 20:35 | 41.24631 | 1.93051 | 2439 ft | 169 kts | 66° |
| 2026-05-03 20:35 | 41.25113 | 1.94422 | 2152 ft | 159 kts | 66° |
| 2026-05-03 20:35 | 41.25572 | 1.95721 | 1857 ft | 152 kts | 66° |
| 2026-05-03 20:36 | 41.25999 | 1.96971 | 1603 ft | 147 kts | 66° |
| 2026-05-03 20:36 | 41.26399 | 1.98210 | 1454 ft | 145 kts | 65° |
| 2026-05-03 20:36 | 41.26833 | 1.99416 | 1338 ft | 144 kts | 65° |
| 2026-05-03 20:36 | 41.27233 | 2.00632 | 1177 ft | 143 kts | 68° |
| 2026-05-03 20:37 | 41.27639 | 2.01839 | 961 ft | 142 kts | 64° |
| 2026-05-03 20:37 | 41.28066 | 2.03035 | 762 ft | 144 kts | 65° |
| 2026-05-03 20:37 | 41.28472 | 2.04246 | 598 ft | 144 kts | 66° |
| 2026-05-03 20:37 | 41.28881 | 2.05472 | 374 ft | 145 kts | 63° |
| 2026-05-03 20:38 | 41.29308 | 2.06685 | 141 ft | 145 kts | 64° |
| 2026-05-03 20:38 | 41.29721 | 2.07878 | 23 ft | 131 kts | 65° |
| 2026-05-03 20:38 | 41.29982 | 2.08641 | 22 ft | 28 kts | 63° |
| 2026-05-03 20:38 | 41.30095 | 2.08780 | 20 ft | 22 kts | 39° |
| 2026-05-03 20:39 | 41.30202 | 2.08862 | 20 ft | 16 kts | 22° |
| 2026-05-03 20:39 | 41.30276 | 2.08884 | 18 ft | 8 kts | 338° |
| 2026-05-03 20:39 | 41.30298 | 2.08828 | 18 ft | 7 kts | 254° |
| 2026-05-03 20:39 | 41.30275 | 2.08771 | 20 ft | 10 kts | 241° |
| 2026-05-03 20:40 | 41.30233 | 2.08656 | 19 ft | 15 kts | 245° |
| 2026-05-03 20:40 | 41.30190 | 2.08527 | 21 ft | 16 kts | 245° |
| 2026-05-03 20:40 | 41.30145 | 2.08397 | 20 ft | 15 kts | 245° |
| 2026-05-03 20:40 | 41.30105 | 2.08282 | 20 ft | 9 kts | 245° |
| 2026-05-03 20:41 | 41.30121 | 2.08212 | 19 ft | 9 kts | 319° |
| 2026-05-03 20:41 | 41.30180 | 2.08181 | 19 ft | 7 kts | 339° |
| 2026-05-03 20:41 | 41.30214 | 2.08161 | 19 ft | 3 kts | 322° |
| 2026-05-03 20:41 | 41.30233 | 2.08138 | 19 ft | 5 kts | 319° |
| 2026-05-03 20:42 | 41.30255 | 2.08106 | 20 ft | 4 kts | 307° |
| 2026-05-03 20:42 | 41.30269 | 2.08082 | 21 ft | 2 kts | 308° |
| 2026-05-03 20:42 | 41.30279 | 2.08065 | 21 ft | 0 kts | 309° |